createdAt,value
2023-05-16T00:01:53.828Z,15.02
2023-05-16T00:04:26.720Z,14.48
2023-05-16T00:06:59.132Z,15.35
2023-05-16T00:09:31.609Z,13.85
2023-05-16T00:12:04.362Z,15.70
2023-05-16T00:14:37.513Z,20.50
2023-05-16T00:17:11.167Z,17.23
2023-05-16T00:19:44.003Z,18.33
2023-05-16T00:22:16.510Z,17.73
2023-05-16T00:24:48.954Z,14.55
2023-05-16T00:27:21.549Z,14.50
2023-05-16T00:29:55.562Z,19.92
2023-05-16T00:32:27.955Z,14.43
2023-05-16T00:35:00.396Z,15.43
2023-05-16T00:37:32.820Z,13.93
2023-05-16T00:40:06.803Z,17.50
2023-05-16T00:42:39.416Z,19.08
2023-05-16T00:45:12.636Z,16.52
2023-05-16T00:47:45.027Z,17.42
2023-05-16T00:50:18.284Z,18.17
2023-05-16T00:52:50.748Z,17.15
2023-05-16T00:55:23.342Z,18.50
2023-05-16T00:57:58.254Z,18.80
2023-05-16T01:00:31.728Z,15.27
2023-05-16T01:03:05.154Z,17.17
2023-05-16T01:05:37.629Z,15.90
2023-05-16T01:08:11.583Z,18.05
2023-05-16T01:10:52.818Z,21.20
2023-05-16T01:13:33.465Z,19.10
2023-05-16T01:16:13.321Z,16.65
2023-05-16T01:18:54.528Z,18.55
2023-05-16T01:21:39.490Z,21.48
2023-05-16T01:24:18.705Z,19.35
2023-05-16T01:26:52.293Z,16.75
2023-05-16T01:29:25.076Z,18.48
2023-05-16T01:31:57.659Z,17.75
2023-05-16T01:34:30.084Z,19.85
2023-05-16T01:37:12.125Z,16.55
2023-05-16T01:39:47.443Z,17.77
2023-05-16T01:42:24.338Z,18.33
2023-05-16T01:45:01.993Z,17.20
2023-05-16T01:47:39.910Z,18.55
2023-05-16T01:50:14.992Z,18.00
2023-05-16T01:52:52.378Z,17.13
2023-05-16T01:55:35.170Z,20.65
2023-05-16T01:58:10.101Z,18.52
2023-05-16T02:00:42.831Z,20.17
2023-05-16T02:03:15.374Z,18.77
2023-05-16T02:05:47.859Z,20.63
2023-05-16T02:08:20.520Z,29.50
2023-05-16T02:10:55.780Z,16.02
2023-05-16T02:13:28.778Z,17.50
2023-05-16T02:16:01.467Z,16.13
2023-05-16T02:18:34.305Z,18.23
2023-05-16T02:21:06.748Z,20.92
2023-05-16T02:23:39.176Z,18.25
2023-05-16T02:26:11.538Z,18.92
2023-05-16T02:28:44.800Z,17.52
2023-05-16T02:31:26.314Z,18.65
2023-05-16T02:33:59.366Z,17.80
2023-05-16T02:36:33.753Z,18.40
2023-05-16T02:39:07.990Z,21.73
2023-05-16T02:41:40.571Z,17.80
2023-05-16T02:44:14.914Z,18.67
2023-05-16T02:46:47.341Z,17.77
2023-05-16T02:49:20.060Z,19.75
2023-05-16T02:51:52.421Z,16.02
2023-05-16T02:54:24.861Z,17.83
2023-05-16T02:56:57.287Z,19.13
2023-05-16T02:59:30.386Z,16.77
2023-05-16T03:02:03.118Z,20.38
2023-05-16T03:04:35.789Z,19.73
2023-05-16T03:07:08.137Z,21.80
2023-05-16T03:09:41.211Z,16.52
2023-05-16T03:12:13.497Z,18.63
2023-05-16T03:14:46.539Z,20.08
2023-05-16T03:17:18.984Z,15.27
2023-05-16T03:19:51.539Z,15.13
2023-05-16T03:22:23.795Z,18.08
2023-05-16T03:24:56.669Z,15.90
2023-05-16T03:27:28.953Z,20.80
2023-05-16T03:30:02.001Z,16.23
2023-05-16T03:32:34.858Z,16.30
2023-05-16T03:35:07.886Z,16.48
2023-05-16T03:37:40.405Z,14.65
2023-05-16T03:40:13.067Z,19.50
2023-05-16T03:42:45.415Z,17.02
2023-05-16T03:45:18.483Z,17.17
2023-05-16T03:47:50.872Z,17.67
2023-05-16T03:50:23.376Z,13.82
2023-05-16T03:52:55.809Z,17.05
2023-05-16T03:55:28.449Z,17.40
2023-05-16T03:58:00.923Z,16.02
2023-05-16T04:00:33.910Z,14.10
2023-05-16T04:03:06.249Z,18.90
2023-05-16T04:05:38.651Z,23.80
2023-05-16T04:08:10.911Z,17.15
2023-05-16T04:10:43.208Z,19.08
2023-05-16T04:13:15.557Z,17.55
2023-05-16T04:15:48.682Z,19.27
2023-05-16T04:18:21.027Z,18.17
2023-05-16T04:20:53.350Z,18.42
2023-05-16T04:23:26.010Z,15.90
2023-05-16T04:25:58.336Z,17.40
2023-05-16T04:28:30.622Z,18.90
2023-05-16T04:31:03.770Z,16.13
2023-05-16T04:33:36.558Z,18.27
2023-05-16T04:36:08.855Z,15.70
2023-05-16T04:38:41.296Z,20.70
2023-05-16T04:41:13.651Z,16.17
2023-05-16T04:43:45.950Z,14.75
2023-05-16T04:46:20.220Z,19.15
2023-05-16T04:48:52.493Z,12.65
2023-05-16T04:51:24.788Z,14.80
2023-05-16T04:53:57.137Z,21.35
2023-05-16T04:56:29.464Z,16.45
2023-05-16T04:59:03.498Z,13.95
2023-05-16T05:01:36.628Z,19.63
2023-05-16T05:04:08.985Z,17.13
2023-05-16T05:06:41.279Z,18.48
2023-05-16T05:09:13.560Z,16.27
2023-05-16T05:11:45.912Z,29.85
2023-05-16T05:14:18.299Z,19.17
2023-05-16T05:16:51.457Z,19.42
2023-05-16T05:19:23.848Z,17.58
2023-05-16T05:21:56.099Z,16.65
2023-05-16T05:24:28.387Z,21.55
2023-05-16T05:27:00.934Z,21.13
2023-05-16T05:29:33.325Z,18.20
2023-05-16T05:32:07.655Z,14.80
2023-05-16T05:34:40.075Z,15.57
2023-05-16T05:37:12.470Z,19.45
2023-05-16T05:39:45.360Z,17.60
2023-05-16T05:42:17.749Z,17.77
2023-05-16T05:44:50.034Z,16.13
2023-05-16T05:47:23.289Z,18.08
2023-05-16T05:49:55.726Z,16.77
2023-05-16T05:52:28.098Z,20.33
2023-05-16T05:55:00.969Z,16.42
2023-05-16T05:57:33.335Z,21.33
2023-05-16T06:00:06.788Z,15.18
2023-05-16T06:02:42.671Z,15.25
2023-05-16T06:05:18.382Z,14.88
2023-05-16T06:07:50.730Z,18.73
2023-05-16T06:10:23.023Z,17.38
2023-05-16T06:12:55.323Z,15.55
2023-05-16T06:15:27.798Z,15.18
2023-05-16T06:18:00.923Z,18.27
2023-05-16T06:20:33.264Z,18.63
2023-05-16T06:23:05.600Z,12.27
2023-05-16T06:25:38.103Z,15.55
2023-05-16T06:28:10.452Z,17.65
2023-05-16T06:30:42.731Z,19.48
2023-05-16T06:33:15.711Z,12.95
2023-05-16T06:35:48.319Z,15.30
2023-05-16T06:38:20.622Z,14.32
2023-05-16T06:40:53.077Z,15.23
2023-05-16T06:43:25.455Z,15.52
2023-05-16T06:45:57.980Z,15.02
2023-05-16T06:48:31.110Z,13.32
2023-05-16T06:51:03.786Z,13.68
2023-05-16T06:53:42.592Z,19.42
2023-05-16T06:56:14.940Z,12.57
2023-05-16T06:58:48.873Z,13.43
2023-05-16T07:01:21.307Z,15.75
2023-05-16T07:03:54.489Z,12.45
2023-05-16T07:06:26.951Z,13.50
2023-05-16T07:08:59.354Z,15.57
2023-05-16T07:11:31.728Z,16.98
2023-05-16T07:14:04.125Z,15.27
2023-05-16T07:16:36.652Z,12.13
2023-05-16T07:19:10.306Z,11.95
2023-05-16T07:21:42.679Z,15.13
2023-05-16T07:24:15.039Z,11.98
2023-05-16T07:26:47.424Z,11.00
2023-05-16T07:29:19.923Z,16.27
2023-05-16T07:31:52.314Z,15.15
2023-05-16T07:34:25.768Z,11.32
2023-05-16T07:36:58.075Z,13.23
2023-05-16T07:39:30.439Z,15.55
2023-05-16T07:42:02.804Z,12.27
2023-05-16T07:44:35.736Z,10.32
2023-05-16T07:47:08.147Z,10.50
2023-05-16T07:49:41.378Z,11.38
2023-05-16T07:52:13.693Z,12.40
2023-05-16T07:54:47.046Z,15.73
2023-05-16T07:57:19.755Z,11.63
2023-05-16T07:59:52.511Z,12.80
2023-05-16T08:02:29.029Z,13.32
2023-05-16T08:05:02.287Z,13.35
2023-05-16T08:07:34.893Z,12.27
2023-05-16T08:10:08.446Z,15.25
2023-05-16T08:12:40.812Z,10.95
2023-05-16T08:15:13.141Z,10.15
2023-05-16T08:17:45.525Z,13.52
2023-05-16T08:20:18.626Z,10.15
2023-05-16T08:22:51.100Z,8.80
2023-05-16T08:25:23.445Z,7.18
2023-05-16T08:27:55.768Z,11.50
2023-05-16T08:30:28.629Z,7.35
2023-05-16T08:33:04.335Z,9.02
2023-05-16T08:35:37.403Z,8.15
2023-05-16T08:38:09.857Z,7.93
2023-05-16T08:40:43.919Z,9.18
2023-05-16T08:43:16.345Z,7.80
2023-05-16T08:45:49.510Z,7.35
2023-05-16T08:48:23.766Z,13.73
2023-05-16T08:50:57.064Z,9.25
2023-05-16T08:53:36.512Z,6.88
2023-05-16T08:58:41.575Z,8.65
2023-05-16T09:01:14.339Z,9.07
2023-05-16T09:03:47.638Z,10.32
2023-05-16T09:06:20.924Z,11.43
2023-05-16T09:08:53.384Z,9.45
2023-05-16T09:11:25.722Z,9.10
2023-05-16T09:13:58.044Z,10.63
2023-05-16T09:16:30.607Z,13.55
2023-05-16T09:19:03.782Z,10.90
2023-05-16T09:21:36.959Z,8.43
2023-05-16T09:24:10.043Z,11.88
2023-05-16T09:26:44.721Z,8.23
2023-05-16T09:29:18.588Z,9.02
2023-05-16T09:31:51.013Z,11.25
2023-05-16T09:34:23.535Z,7.93
2023-05-16T09:36:56.544Z,11.45
2023-05-16T09:39:29.005Z,10.70
2023-05-16T09:42:01.489Z,8.73
2023-05-16T09:44:34.088Z,9.00
2023-05-16T09:47:06.978Z,9.55
2023-05-16T09:49:39.288Z,13.18
2023-05-16T09:52:13.399Z,10.60
2023-05-16T09:54:48.134Z,13.27
2023-05-16T09:57:21.004Z,9.65
2023-05-16T09:59:53.388Z,12.15
2023-05-16T10:02:26.449Z,11.95
2023-05-16T10:04:59.195Z,10.02
2023-05-16T10:07:33.090Z,11.38
2023-05-16T10:10:07.118Z,11.68
2023-05-16T10:12:40.834Z,10.63
2023-05-16T10:15:14.102Z,11.07
2023-05-16T10:17:51.042Z,8.48
2023-05-16T10:20:23.550Z,12.15
2023-05-16T10:22:58.919Z,9.73
2023-05-16T10:25:36.978Z,9.40
2023-05-16T10:28:09.638Z,8.57
2023-05-16T10:30:43.698Z,10.70
2023-05-16T10:33:17.741Z,8.80
2023-05-16T10:35:50.729Z,8.85
2023-05-16T10:38:24.801Z,14.00
2023-05-16T10:40:58.074Z,10.40
2023-05-16T10:43:30.765Z,11.52
2023-05-16T10:46:05.297Z,12.50
2023-05-16T10:48:39.384Z,12.10
2023-05-16T10:51:34.110Z,8.05
2023-05-16T10:54:09.278Z,8.07
2023-05-16T10:56:42.556Z,12.20
2023-05-16T10:59:25.393Z,12.25
2023-05-16T11:01:57.877Z,8.85
2023-05-16T11:04:45.569Z,8.55
2023-05-16T11:07:19.357Z,9.10
2023-05-16T11:10:06.321Z,8.82
2023-05-16T11:12:44.279Z,9.68
2023-05-16T11:15:22.716Z,8.13
2023-05-16T11:18:14.990Z,8.73
2023-05-16T11:20:52.178Z,7.95
2023-05-16T11:23:28.056Z,9.38
2023-05-16T11:26:03.122Z,8.80
2023-05-16T11:28:35.490Z,11.18
2023-05-16T11:31:08.964Z,9.45
2023-05-16T11:33:41.437Z,9.55
2023-05-16T11:36:15.699Z,9.30
2023-05-16T11:38:48.773Z,11.25
2023-05-16T11:41:22.164Z,14.45
2023-05-16T11:43:54.512Z,10.07
2023-05-16T11:46:27.209Z,7.00
2023-05-16T11:49:00.127Z,7.22
2023-05-16T11:51:34.322Z,9.32
2023-05-16T11:54:07.375Z,9.55
2023-05-16T11:56:40.850Z,11.30
2023-05-16T11:59:13.455Z,10.32
2023-05-16T12:01:48.463Z,11.85
2023-05-16T12:04:21.598Z,9.60
2023-05-16T12:07:01.520Z,11.45
2023-05-16T12:09:33.911Z,12.48
2023-05-16T12:12:07.627Z,9.23
2023-05-16T12:14:40.118Z,16.25
2023-05-16T12:17:12.824Z,9.05
2023-05-16T12:19:45.902Z,10.05
2023-05-16T12:22:19.355Z,11.75
2023-05-16T12:24:51.769Z,11.80
2023-05-16T12:27:26.547Z,11.40
2023-05-16T12:29:58.928Z,9.55
2023-05-16T12:32:36.904Z,12.40
2023-05-16T12:35:11.357Z,14.02
2023-05-16T12:37:43.733Z,15.70
2023-05-16T12:40:16.327Z,12.77
2023-05-16T12:42:51.287Z,10.45
2023-05-16T12:45:24.392Z,11.57
2023-05-16T12:47:56.782Z,17.05
2023-05-16T12:50:29.410Z,13.38
2023-05-16T12:53:02.033Z,10.65
2023-05-16T12:55:34.356Z,11.60
2023-05-16T12:58:07.835Z,10.13
2023-05-16T13:00:40.327Z,10.13
2023-05-16T13:03:12.778Z,9.95
2023-05-16T13:05:45.248Z,13.23
2023-05-16T13:08:17.550Z,14.20
2023-05-16T13:10:50.800Z,11.45
2023-05-16T13:13:35.456Z,13.60
2023-05-16T13:16:09.575Z,17.20
2023-05-16T13:18:42.041Z,10.63
2023-05-16T13:21:14.379Z,10.23
2023-05-16T13:23:46.673Z,13.65
2023-05-16T13:26:19.015Z,20.35
2023-05-16T13:28:53.573Z,11.90
2023-05-16T13:31:26.075Z,10.77
2023-05-16T13:33:58.494Z,10.18
2023-05-16T13:36:41.702Z,13.95
2023-05-16T13:39:22.360Z,12.73
2023-05-16T13:41:54.771Z,11.48
2023-05-16T13:44:27.823Z,15.07
2023-05-16T13:47:00.370Z,15.45
2023-05-16T13:49:32.774Z,17.45
2023-05-16T13:52:06.257Z,12.60
2023-05-16T13:54:39.797Z,13.40
2023-05-16T13:57:12.184Z,14.60
2023-05-16T14:00:17.727Z,19.65
2023-05-16T14:02:44.086Z,26.27
2023-05-16T14:05:16.489Z,23.85
2023-05-16T14:07:49.692Z,19.05
2023-05-16T14:10:22.113Z,13.73
2023-05-16T14:12:54.444Z,15.38
2023-05-16T14:15:27.679Z,24.58
2023-05-16T14:18:00.234Z,20.75
2023-05-16T14:20:32.780Z,22.05
2023-05-16T14:23:05.285Z,16.83
2023-05-16T14:25:37.621Z,19.65
2023-05-16T14:28:10.202Z,13.88
2023-05-16T14:30:44.579Z,10.32
2023-05-16T14:33:17.975Z,12.80
2023-05-16T14:35:51.419Z,11.85
2023-05-16T14:38:23.772Z,11.40
2023-05-16T14:40:56.192Z,9.90
2023-05-16T14:43:28.536Z,11.82
2023-05-16T14:46:01.561Z,13.10
2023-05-16T14:48:33.899Z,9.35
2023-05-16T14:51:06.642Z,8.93
2023-05-16T14:53:39.014Z,8.85
2023-05-16T14:56:11.312Z,12.45
2023-05-16T14:58:43.664Z,13.82
2023-05-16T15:01:16.764Z,10.18
2023-05-16T15:03:55.452Z,10.25
2023-05-16T15:06:29.300Z,10.60
2023-05-16T15:09:02.786Z,15.25
2023-05-16T15:11:35.442Z,13.98
2023-05-16T15:14:07.958Z,18.17
2023-05-16T15:16:41.855Z,12.10
2023-05-16T15:19:15.935Z,14.52
2023-05-16T15:21:48.290Z,14.20
2023-05-16T15:24:20.705Z,16.85
2023-05-16T15:26:53.060Z,21.98
2023-05-16T15:29:25.651Z,16.38
2023-05-16T15:31:58.698Z,15.10
2023-05-16T15:34:31.434Z,10.55
2023-05-16T15:37:03.877Z,12.15
2023-05-16T15:39:36.253Z,11.27
2023-05-16T15:42:11.079Z,18.65
2023-05-16T15:44:43.816Z,17.05
2023-05-16T15:47:16.806Z,15.88
2023-05-16T15:49:49.124Z,19.33
2023-05-16T15:52:22.903Z,17.30
2023-05-16T15:54:55.504Z,11.57
2023-05-16T15:57:27.834Z,8.57
2023-05-16T16:00:00.235Z,12.23
2023-05-16T16:02:33.832Z,7.22
2023-05-16T16:05:07.591Z,8.80
2023-05-16T16:07:39.980Z,7.90
2023-05-16T16:10:12.543Z,8.32
2023-05-16T16:12:58.190Z,4.53
2023-05-16T16:15:33.543Z,2.78
2023-05-16T16:18:07.041Z,5.05
2023-05-16T16:20:39.541Z,4.32
2023-05-16T16:23:11.922Z,4.15
2023-05-16T16:25:44.518Z,3.00
2023-05-16T16:28:17.124Z,5.38
2023-05-16T16:30:49.996Z,4.82
2023-05-16T16:33:23.340Z,3.67
2023-05-16T16:35:55.843Z,9.25
2023-05-16T16:38:28.335Z,8.40
2023-05-16T16:41:01.021Z,11.93
2023-05-16T16:43:33.432Z,7.43
2023-05-16T16:46:06.218Z,11.88
2023-05-16T16:48:39.320Z,11.35
2023-05-16T16:51:11.778Z,9.50
2023-05-16T16:53:44.412Z,10.50
2023-05-16T16:56:16.917Z,11.00
2023-05-16T16:58:49.333Z,10.10
2023-05-16T17:01:22.185Z,12.77
2023-05-16T17:03:55.244Z,13.48
2023-05-16T17:06:29.262Z,15.45
2023-05-16T17:09:04.189Z,15.15
2023-05-16T17:11:40.060Z,13.75
2023-05-16T17:14:13.713Z,13.43
2023-05-16T17:16:46.251Z,14.02
2023-05-16T17:19:19.346Z,11.57
2023-05-16T17:21:51.970Z,9.30
2023-05-16T17:24:24.344Z,8.30
2023-05-16T17:26:56.883Z,8.30
2023-05-16T17:29:29.888Z,7.90
2023-05-16T17:32:02.348Z,8.23
2023-05-16T17:34:35.796Z,12.18
2023-05-16T17:37:09.818Z,7.72
2023-05-16T17:39:42.509Z,6.28
2023-05-16T17:42:15.104Z,11.90
2023-05-16T17:44:47.574Z,8.65
2023-05-16T17:47:20.054Z,6.78
2023-05-16T17:49:53.176Z,7.22
2023-05-16T17:52:26.120Z,6.22
2023-05-16T17:54:58.737Z,10.80
2023-05-16T17:57:31.182Z,9.55
2023-05-16T18:00:04.904Z,15.52
2023-05-16T18:02:38.863Z,10.02
2023-05-16T18:05:13.274Z,6.72
2023-05-16T18:07:45.916Z,7.78
2023-05-16T18:10:18.994Z,9.15
2023-05-16T18:12:51.509Z,8.27
2023-05-16T18:15:23.897Z,9.68
2023-05-16T18:17:56.532Z,10.23
2023-05-16T18:20:29.852Z,13.82
2023-05-16T18:23:02.920Z,13.45
2023-05-16T18:25:35.583Z,21.48
2023-05-16T18:28:08.033Z,8.13
2023-05-16T18:30:40.719Z,14.13
2023-05-16T18:33:13.337Z,11.68
2023-05-16T18:35:46.453Z,7.88
2023-05-16T18:38:31.336Z,9.98
2023-05-16T18:41:05.661Z,11.00
2023-05-16T18:43:38.099Z,7.60
2023-05-16T18:46:10.530Z,9.32
2023-05-16T18:48:42.923Z,11.80
2023-05-16T18:51:16.274Z,9.35
2023-05-16T18:53:48.771Z,7.57
2023-05-16T18:56:21.887Z,13.52
2023-05-16T18:58:54.372Z,10.70
2023-05-16T19:01:26.952Z,10.70
2023-05-16T19:03:59.535Z,8.77
2023-05-16T19:06:32.624Z,14.40
2023-05-16T19:09:13.502Z,15.73
2023-05-16T19:11:45.881Z,15.73
2023-05-16T19:14:18.415Z,13.98
2023-05-16T19:16:50.791Z,15.77
2023-05-16T19:19:23.601Z,15.68
2023-05-16T19:21:56.808Z,13.30
2023-05-16T19:24:29.479Z,17.60
2023-05-16T19:27:01.974Z,11.85
2023-05-16T19:29:34.409Z,11.45
2023-05-16T19:32:07.578Z,8.82
2023-05-16T19:34:40.449Z,5.72
2023-05-16T19:37:13.495Z,10.38
2023-05-16T19:39:45.849Z,15.10
2023-05-16T19:42:18.244Z,10.88
2023-05-16T19:44:50.584Z,9.70
2023-05-16T19:47:23.142Z,12.38
2023-05-16T19:49:55.525Z,12.13
2023-05-16T19:52:29.316Z,18.15
2023-05-16T19:55:02.502Z,25.23
2023-05-16T19:57:34.907Z,19.35
2023-05-16T20:00:09.747Z,21.75
2023-05-16T20:02:51.205Z,21.92
2023-05-16T20:05:23.886Z,23.67
2023-05-16T20:07:57.008Z,21.48
2023-05-16T20:10:29.390Z,17.58
2023-05-16T20:13:01.927Z,19.45
2023-05-16T20:15:34.266Z,17.88
2023-05-16T20:18:06.702Z,11.75
2023-05-16T20:20:39.202Z,12.80
2023-05-16T20:23:12.302Z,12.38
2023-05-16T20:25:44.902Z,17.42
2023-05-16T20:28:17.321Z,12.20
2023-05-16T20:30:49.693Z,9.82
2023-05-16T20:33:22.188Z,17.58
2023-05-16T20:35:54.557Z,13.90
2023-05-16T20:38:27.583Z,13.05
2023-05-16T20:40:59.955Z,16.50
2023-05-16T20:43:32.871Z,19.55
2023-05-16T20:46:05.552Z,24.20
2023-05-16T20:48:37.986Z,16.67
2023-05-16T20:51:10.384Z,20.30
2023-05-16T20:53:43.420Z,28.35
2023-05-16T20:56:15.817Z,32.53
2023-05-16T20:58:48.188Z,21.38
2023-05-16T21:01:20.623Z,19.27
2023-05-16T21:03:53.009Z,18.35
2023-05-16T21:06:25.462Z,12.15
2023-05-16T21:08:58.442Z,10.82
2023-05-16T21:11:32.221Z,11.48
2023-05-16T21:14:04.594Z,14.90
2023-05-16T21:16:36.995Z,17.80
2023-05-16T21:19:09.452Z,12.57
2023-05-16T21:21:41.885Z,12.85
2023-05-16T21:24:14.893Z,10.02
2023-05-16T21:26:47.245Z,14.50
2023-05-16T21:29:19.819Z,6.97
2023-05-16T21:31:52.074Z,9.43
2023-05-16T21:34:24.468Z,10.75
2023-05-16T21:36:57.962Z,7.72
2023-05-16T21:39:30.973Z,12.55
2023-05-16T21:42:03.585Z,17.38
2023-05-16T21:44:35.910Z,14.93
2023-05-16T21:47:08.234Z,11.98
2023-05-16T21:49:41.611Z,13.23
2023-05-16T21:52:13.976Z,11.82
2023-05-16T21:54:50.780Z,13.25
2023-05-16T21:57:23.089Z,9.65
2023-05-16T21:59:55.434Z,27.33
2023-05-16T22:02:27.872Z,25.45
2023-05-16T22:05:01.443Z,15.95
2023-05-16T22:07:33.849Z,22.40
2023-05-16T22:10:09.972Z,16.42
2023-05-16T22:12:42.311Z,14.75
2023-05-16T22:15:14.856Z,14.35
2023-05-16T22:17:47.723Z,14.43
2023-05-16T22:20:20.828Z,13.00
2023-05-16T22:22:53.181Z,10.02
2023-05-16T22:25:26.489Z,14.43
2023-05-16T22:27:58.978Z,13.82
2023-05-16T22:30:31.283Z,16.75
2023-05-16T22:33:03.936Z,16.35
2023-05-16T22:35:36.348Z,20.92
2023-05-16T22:38:08.697Z,17.60
2023-05-16T22:40:41.690Z,12.25
2023-05-16T22:43:14.040Z,18.70
2023-05-16T22:45:46.569Z,10.70
2023-05-16T22:48:18.982Z,15.82
2023-05-16T22:50:51.471Z,8.68
2023-05-16T22:53:24.129Z,5.85
2023-05-16T22:55:57.211Z,11.00
2023-05-16T22:58:29.795Z,10.15
2023-05-16T23:01:02.634Z,17.02
2023-05-16T23:03:35.192Z,14.68
2023-05-16T23:06:07.715Z,13.60
2023-05-16T23:08:41.560Z,16.42
2023-05-16T23:11:14.588Z,11.63
2023-05-16T23:13:46.911Z,11.95
2023-05-16T23:16:19.203Z,15.25
2023-05-16T23:18:51.609Z,16.73
2023-05-16T23:21:24.142Z,11.00
2023-05-16T23:23:56.490Z,29.67
2023-05-16T23:26:29.431Z,13.88
2023-05-16T23:29:01.881Z,11.82
2023-05-16T23:31:34.278Z,16.52
2023-05-16T23:34:06.728Z,16.00
2023-05-16T23:36:39.078Z,27.73
2023-05-16T23:39:11.416Z,11.52
2023-05-16T23:41:44.404Z,16.10
2023-05-16T23:44:16.753Z,12.68
2023-05-16T23:46:49.052Z,11.13
2023-05-16T23:49:21.410Z,11.93
2023-05-16T23:51:57.827Z,14.65
2023-05-16T23:54:30.491Z,15.88
2023-05-16T23:57:04.000Z,12.18
2023-05-16T23:59:36.837Z,16.98
